Maersk Damietta — A8OU4 — position and weather

sailwx.info

Track history (hours):
 
Tides and Currents Weather Stations Pressure Air Temp Water Temp Dewpoint Dewpoint Depression Visibility Wind Speed Wind Dir Waves Ship Positions

Maersk Damietta

Last reported at 2017-Apr-27 10:00 UTC. Time now 2017-Apr-27 18:48 UTC.
Position N 23°54' E 118°22'.

Length 295 m; draft 7.9 m.

Type: Ship. MMSI: 636091506.

Date/timePositionNaut miles runAvg speedWind from/ knotsBaromVisibWave heightAir tempDewpointWater temp
2017-Apr-27 10:00N 23°54' E 118°22'73317.2
2017-Apr-25 15:29N 35°56' E 120°45'27 1.5
2017-Apr-24 22:11N 36°01' E 120°13'3 8.0
2017-Apr-24 21:49N 36°02' E 120°16'3 9.1
2017-Apr-24 21:30N 36°02' E 120°20'4 8.7
2017-Apr-24 21:00N 36°01' E 120°25'612.1
2017-Apr-24 20:30N 35°59' E 120°32'510.3
2017-Apr-24 19:58N 35°58' E 120°39'1010.7
2017-Apr-24 19:05N 35°57' E 120°51'6 1.9
2017-Apr-24 15:46N 35°55' E 120°58'130 9.8
2017-Apr-24 02:29N 37°52' E 122°08'816.9
2017-Apr-24 02:00N 37°57' E 121°60'1016.9
2017-Apr-24 01:25N 38°03' E 121°50'816.8
2017-Apr-24 00:56N 38°07' E 121°41'1017.3
2017-Apr-24 00:22N 38°13' E 121°31'917.8
2017-Apr-23 23:52N 38°19' E 121°23'616.7
2017-Apr-23 23:30N 38°23' E 121°17'4013.6
2017-Apr-23 20:36N 38°36' E 120°29'417.2
2017-Apr-23 20:23N 38°37' E 120°24'717.1
2017-Apr-23 20:00N 38°37' E 120°16'1017.3
2017-Apr-23 19:25N 38°39' E 120°03'10815.5
2017-Apr-23 12:28N 38°59' E 117°47'109 3.4
2017-Apr-22 04:22N 38°42' E 120°05'410.9
2017-Apr-22 03:59N 38°41' E 120°10'510.8
2017-Apr-22 03:29N 38°40' E 120°17'5211.2
2017-Apr-21 22:50N 38°25' E 121°21'411.0
2017-Apr-21 22:26N 38°23' E 121°25'510.8
2017-Apr-21 21:57N 38°20' E 121°31'510.8
2017-Apr-21 21:30N 38°17' E 121°36'610.7
2017-Apr-21 20:54N 38°14' E 121°43'410.7
2017-Apr-21 20:30N 38°12' E 121°48'510.8
2017-Apr-21 20:00N 38°09' E 121°54'510.9
2017-Apr-21 19:30N 38°06' E 121°60'511.0
2017-Apr-21 19:01N 38°04' E 122°06'611.1
2017-Apr-21 18:31N 38°01' E 122°12'611.1
2017-Apr-21 18:01N 37°58' E 122°18'611.2
2017-Apr-21 17:30N 37°55' E 122°24'611.1
2017-Apr-21 17:00N 37°52' E 122°30'611.0
2017-Apr-21 16:30N 37°49' E 122°36'611.1
2017-Apr-21 16:00N 37°46' E 122°42'511.0
2017-Apr-21 15:30N 37°42' E 122°47'510.9
2017-Apr-21 15:00N 37°38' E 122°50'510.6
2017-Apr-21 14:30N 37°33' E 122°54'  
2017-Apr-19 06:00N 26°12' E 123°00'   140 / 181011.6 5.4 25.017.9
Track history (hours):
 
Tides and Currents Weather Stations Pressure Air Temp Water Temp Dewpoint Dewpoint Depression Visibility Wind Speed Wind Dir Waves Ship Positions

Maersk Damietta

Last reported at 2017-Apr-27 10:00 UTC. Time now 2017-Apr-27 18:48 UTC.
Position N 23°54' E 118°22'.

Length 295 m; draft 7.9 m.

Type: Ship. MMSI: 636091506.

Date/timePositionNaut miles runAvg speedWind from/ knotsBaromVisibWave heightAir tempDewpointWater temp
2017-Apr-27 10:00N 23°54' E 118°22'73317.2
2017-Apr-25 15:29N 35°56' E 120°45'27 1.5
2017-Apr-24 22:11N 36°01' E 120°13'3 8.0
2017-Apr-24 21:49N 36°02' E 120°16'3 9.1
2017-Apr-24 21:30N 36°02' E 120°20'4 8.7
2017-Apr-24 21:00N 36°01' E 120°25'612.1
2017-Apr-24 20:30N 35°59' E 120°32'510.3
2017-Apr-24 19:58N 35°58' E 120°39'1010.7
2017-Apr-24 19:05N 35°57' E 120°51'6 1.9
2017-Apr-24 15:46N 35°55' E 120°58'130 9.8
2017-Apr-24 02:29N 37°52' E 122°08'816.9
2017-Apr-24 02:00N 37°57' E 121°60'1016.9
2017-Apr-24 01:25N 38°03' E 121°50'816.8
2017-Apr-24 00:56N 38°07' E 121°41'1017.3
2017-Apr-24 00:22N 38°13' E 121°31'917.8
2017-Apr-23 23:52N 38°19' E 121°23'616.7
2017-Apr-23 23:30N 38°23' E 121°17'4013.6
2017-Apr-23 20:36N 38°36' E 120°29'417.2
2017-Apr-23 20:23N 38°37' E 120°24'717.1
2017-Apr-23 20:00N 38°37' E 120°16'1017.3
2017-Apr-23 19:25N 38°39' E 120°03'10815.5
2017-Apr-23 12:28N 38°59' E 117°47'109 3.4
2017-Apr-22 04:22N 38°42' E 120°05'410.9
2017-Apr-22 03:59N 38°41' E 120°10'510.8
2017-Apr-22 03:29N 38°40' E 120°17'5211.2
2017-Apr-21 22:50N 38°25' E 121°21'411.0
2017-Apr-21 22:26N 38°23' E 121°25'510.8
2017-Apr-21 21:57N 38°20' E 121°31'510.8
2017-Apr-21 21:30N 38°17' E 121°36'610.7
2017-Apr-21 20:54N 38°14' E 121°43'410.7
2017-Apr-21 20:30N 38°12' E 121°48'510.8
2017-Apr-21 20:00N 38°09' E 121°54'510.9
2017-Apr-21 19:30N 38°06' E 121°60'511.0
2017-Apr-21 19:01N 38°04' E 122°06'611.1
2017-Apr-21 18:31N 38°01' E 122°12'611.1
2017-Apr-21 18:01N 37°58' E 122°18'611.2
2017-Apr-21 17:30N 37°55' E 122°24'611.1
2017-Apr-21 17:00N 37°52' E 122°30'611.0
2017-Apr-21 16:30N 37°49' E 122°36'611.1
2017-Apr-21 16:00N 37°46' E 122°42'511.0
2017-Apr-21 15:30N 37°42' E 122°47'510.9
2017-Apr-21 15:00N 37°38' E 122°50'510.6
2017-Apr-21 14:30N 37°33' E 122°54'  
2017-Apr-19 06:00N 26°12' E 123°00'   140 / 181011.6 5.4 25.017.9

Dump ship's entire track history